Station: Walpole North  

  Atmospheric Gas Attenuation - ITU Rec 676-11   ----------------- dB/100km -----------------
Date Time Temp RH % AH g/m3 Dew Point Wind Direction Speed kph Gust kph Barometer mB Rainfall Since 9am 24GHz 47GHz 76GHz 122GHz 134GHz 241GHz
08/05 09:20 14.5 77 9.58 10.5 11 15 1033 0 21.6 28.1 44.3 116.3 112.3 387.2
08/05 09:10 14.1 78 9.47 10.3 11 15 1033.1 0 21.4 28.0 44.1 115.7 111.4 383.9
08/05 09:00 13.7 79 9.36 10.1 15 24 1033.1 0 21.2 27.9 43.9 115.0 110.5 380.5
08/05 08:50 13.2 79 9.07 9.6 15 19 1033.1 0.2 20.6 27.6 42.9 112.5 107.2 369.0
08/05 08:40 13.2 81 9.3 10 11 13 1033.2 0.2 21.1 28.0 43.9 115.1 110.4 380.1
08/05 08:30 12.7 82 9.13 9.7 11 19 1033.2 0.2 20.8 27.9 43.5 113.9 108.7 374.3
08/05 08:20 12.5 83 9.13 9.7 9 11 1033.2 0.2 20.8 27.9 43.6 114.2 109.0 375.3
08/05 08:10 11.9 85 9 9.5 9 11 1033.1 0.2 20.5 27.9 43.4 113.6 108.0 371.8
08/05 08:00 11.4 87 8.93 9.3 11 17 1033.1 0.2 20.4 27.9 43.3 113.6 107.8 370.7
08/05 07:50 10.9 90 8.95 9.3 11 13 1033 0.2 20.5 28.1 43.7 114.5 108.8 374.1
08/05 07:40 10.5 91 8.83 9.1 9 11 1032.9 0.2 20.2 28.0 43.4 113.7 107.6 370.0
08/05 07:30 10.4 92 8.87 9.2 9 19 1032.9 0.2 20.3 28.1 43.6 114.3 108.3 372.5
08/05 07:20 10.5 92 8.92 9.3 11 13 1032.8 0.2 20.4 28.2 43.8 114.7 108.9 374.5
08/05 07:10 10.5 92 8.92 9.3 15 19 1032.8 0.2 20.4 28.2 43.8 114.7 108.9 374.5
08/05 07:00 10.5 92 8.92 9.3 11 19 1032.9 0.2 20.4 28.2 43.8 114.8 108.9 374.5
08/05 06:50 10.7 92 9.04 9.5 11 17 1032.9 0.2 20.7 28.3 44.2 115.8 110.3 379.5
08/05 06:40 10.8 92 9.1 9.6 17 20 1032.9 0.2 20.8 28.4 44.4 116.4 111.0 382.0
08/05 06:30 10.5 92 8.92 9.3 9 17 1032.9 0.2 20.4 28.2 43.8 114.8 108.9 374.5
08/05 06:20 10.4 92 8.87 9.2 7 9 1032.8 0.2 20.3 28.1 43.6 114.3 108.3 372.5
08/05 06:10 10.6 92 8.98 9.4 7 7 1032.7 0.2 20.5 28.3 44.0 115.3 109.6 376.9
08/05 06:00 10.6 92 8.98 9.4 9 11 1032.7 0.2 20.5 28.3 44.0 115.3 109.6 376.9
08/05 05:50 10.6 91 8.88 9.2 9 13 1032.6 0.2 20.3 28.1 43.5 114.1 108.2 371.9
08/05 05:40 11 90 9.01 9.4 9 13 1032.7 0.2 20.6 28.2 43.9 115.0 109.4 376.5
08/05 05:30 11.2 90 9.12 9.6 9 15 1032.6 0.2 20.8 28.3 44.2 116.0 110.7 380.9
08/05 05:20 11.2 89 9.02 9.5 7 11 1032.5 0.2 20.6 28.1 43.8 114.8 109.3 375.9
08/05 05:10 11.3 90 9.18 9.7 9 11 1032.5 0.2 20.9 28.4 44.4 116.5 111.4 383.3
08/05 05:00 10.9 91 9.05 9.5 9 15 1032.4 0.2 20.7 28.3 44.1 115.6 110.1 378.8
08/05 04:50 10.9 91 9.05 9.5 9 13 1032.3 0.2 20.7 28.3 44.1 115.6 110.1 378.8
08/05 04:40 10.7 91 8.94 9.3 7 9 1032.4 0.2 20.5 28.1 43.7 114.6 108.8 374.4
08/05 04:30 10.9 91 9.05 9.5 7 11 1032.3 0.2 20.7 28.3 44.1 115.6 110.1 378.8
08/05 04:20 11 90 9.01 9.4 9 9 1032.3 0.2 20.6 28.2 43.9 115.0 109.4 376.4
08/05 04:10 11.2 90 9.12 9.6 7 7 1032.2 0.2 20.8 28.3 44.2 115.9 110.7 380.8
08/05 04:00 11.4 90 9.24 9.8 9 13 1032.1 0.2 21.1 28.4 44.6 117.0 112.0 385.7
08/05 03:50 11.3 91 9.28 9.9 9 11 1032.1 0.2 21.1 28.5 44.8 117.6 112.8 388.2
08/05 03:40 11.3 91 9.28 9.9 7 9 1032.1 0.2 21.1 28.5 44.8 117.6 112.8 388.2
08/05 03:30 11.3 91 9.28 9.9 7 11 1032.1 0.2 21.1 28.5 44.8 117.6 112.8 388.2
08/05 03:20 11.2 90 9.12 9.6 7 7 1032.2 0.2 20.8 28.3 44.2 115.9 110.7 380.8
08/05 03:10 11.5 90 9.3 9.9 7 9 1032.2 0.2 21.2 28.5 44.8 117.5 112.8 388.2
08/05 03:00 11.4 89 9.14 9.7 6 11 1032.3 0.2 20.8 28.3 44.2 115.9 110.7 380.8
08/05 02:50 11.8 89 9.37 10 7 9 1032.2 0.2 21.3 28.5 45.0 117.9 113.3 390.2
08/05 02:40 11.8 89 9.37 10 6 7 1032.2 0.2 21.3 28.5 45.0 117.9 113.3 390.2
08/05 02:30 12 88 9.38 10.1 9 15 1032.1 0.2 21.3 28.5 44.9 117.7 113.1 389.6
08/05 02:20 12.2 88 9.5 10.3 7 9 1032.1 0.2 21.6 28.6 45.3 118.8 114.5 394.5
08/05 02:10 12.2 88 9.5 10.3 11 13 1032 0 21.6 28.6 45.3 118.8 114.5 394.5
08/05 02:00 11.9 88 9.32 10 9 19 1031.9 0 21.2 28.4 44.7 117.1 112.4 387.1
08/05 01:50 12.2 88 9.5 10.3 9 15 1031.9 0 21.6 28.6 45.3 118.7 114.5 394.5
08/05 01:40 12.2 88 9.5 10.3 11 13 1031.9 0 21.6 28.6 45.3 118.7 114.5 394.5
08/05 01:30 11.9 89 9.43 10.1 7 13 1031.9 0 21.4 28.6 45.1 118.4 114.0 392.5
08/05 01:20 12.1 89 9.55 10.3 9 11 1031.9 0 21.7 28.7 45.5 119.5 115.4 397.5
08/05 01:10 12.1 89 9.55 10.3 9 11 1031.9 0 21.7 28.7 45.5 119.5 115.4 397.5
08/05 01:00 12 89 9.49 10.2 9 17 1031.9 0 21.6 28.7 45.3 118.9 114.7 395.0
08/05 00:50 12.2 89 9.61 10.4 11 17 1032 0 21.8 28.8 45.7 120.0 116.1 399.9
08/05 00:40 12.1 89 9.55 10.3 7 9 1032 0 21.7 28.7 45.5 119.5 115.4 397.5
08/05 00:30 12.3 90 9.77 10.7 11 19 1032 0 22.1 29.1 46.4 121.7 118.2 407.4
08/05 00:20 12.3 90 9.77 10.7 7 9 1032.1 0 22.1 29.1 46.4 121.7 118.2 407.4
08/05 00:10 12.4 90 9.83 10.8 13 15 1032.1 0 22.3 29.1 46.6 122.3 118.9 409.9
08/05 00:00 12.4 90 9.83 10.8 11 17 1032.2 0 22.3 29.1 46.6 122.3 118.9 409.9
07/05 23:50 12.4 91 9.94 11 11 13 1032.2 0 22.5 29.3 47.1 123.5 120.5 415.4
07/05 23:40 12.5 91 10.01 11.1 13 15 1032.1 0 22.6 29.4 47.3 124.2 121.3 418.3
07/05 23:30 12.5 91 10.01 11.1 11 17 1032.1 0 22.6 29.4 47.3 124.2 121.3 418.3
07/05 23:20 12.6 91 10.07 11.2 11 13 1032.2 0 22.8 29.5 47.5 124.7 122.0 420.8
07/05 23:10 12.7 91 10.13 11.3 9 11 1032.2 0 22.9 29.6 47.7 125.3 122.7 423.3
07/05 23:00 12.9 91 10.26 11.5 11 15 1032.3 0 23.2 29.7 48.2 126.5 124.3 428.7
07/05 22:50 13.1 91 10.38 11.7 13 20 1032.3 0 23.4 29.9 48.6 127.5 125.7 433.6
07/05 22:40 13.2 90 10.33 11.6 9 13 1032.3 0 23.3 29.7 48.3 126.8 124.8 430.6
07/05 22:30 13.5 89 10.41 11.7 13 22 1032.3 0 23.4 29.8 48.4 127.2 125.5 432.9
07/05 22:20 13.5 89 10.41 11.7 13 17 1032.3 0 23.4 29.8 48.4 127.2 125.5 432.9
07/05 22:10 13.5 88 10.29 11.6 15 20 1032.3 0 23.2 29.6 47.9 125.8 123.8 426.9
07/05 22:00 13.7 88 10.42 11.8 13 20 1032.3 0 23.5 29.7 48.4 127.0 125.3 432.3
07/05 21:50 13.7 88 10.42 11.7 13 17 1032.2 0 23.5 29.7 48.4 127.0 125.3 432.2
07/05 21:40 13.8 88 10.49 11.8 13 15 1032.1 0 23.6 29.8 48.6 127.7 126.1 435.1
07/05 21:30 13.8 88 10.49 11.8 13 20 1032.1 0 23.6 29.8 48.6 127.7 126.1 435.1
07/05 21:20 13.9 88 10.55 11.9 15 17 1032 0 23.7 29.9 48.8 128.2 126.8 437.5
07/05 21:10 13.9 88 10.55 11.9 19 20 1032 0 23.7 29.9 48.8 128.2 126.8 437.5
07/05 21:00 13.8 89 10.6 12 15 24 1032 0 23.8 30.0 49.1 128.9 127.7 440.6
07/05 20:50 13.9 90 10.79 12.3 13 17 1031.9 0 24.2 30.3 49.8 131.0 130.2 449.5
07/05 20:40 14 90 10.86 12.4 11 13 1031.9 0 24.4 30.4 50.1 131.6 131.1 452.5
07/05 20:30 14.2 90 10.99 12.6 13 24 1031.9 0 24.7 30.5 50.5 132.8 132.6 457.9
07/05 20:20 14.3 89 10.93 12.5 11 15 1031.9 0 24.5 30.4 50.2 131.9 131.5 454.3
07/05 20:10 14.6 89 11.14 12.8 11 15 1032 0 24.9 30.7 50.9 133.9 134.1 463.1
07/05 20:00 14.7 88 11.08 12.7 11 22 1031.9 0 24.8 30.5 50.6 133.0 133.0 459.4
07/05 19:50 15 87 11.16 12.9 13 15 1031.9 0 25.0 30.6 50.7 133.4 133.6 461.7
07/05 19:40 15.1 87 11.22 13 13 17 1031.9 0 25.1 30.6 50.9 133.9 134.3 464.1
07/05 19:30 15.2 87 11.29 13.1 17 26 1031.8 0 25.2 30.7 51.2 134.6 135.1 466.9
07/05 19:20 15.2 88 11.42 13.2 15 22 1031.9 0 25.5 31.0 51.8 136.1 137.0 473.5
07/05 19:10 15.3 89 11.62 13.5 19 22 1031.9 0 25.9 31.3 52.6 138.3 139.7 483.0
07/05 19:00 15.4 89 11.69 13.6 13 22 1031.9 0 26.1 31.4 52.8 138.9 140.6 486.0
07/05 18:50 15.5 89 11.76 13.7 15 17 1031.8 0 26.2 31.4 53.1 139.6 141.4 488.8
07/05 18:40 15.5 89 11.76 13.7 15 19 1031.7 0 26.2 31.4 53.0 139.5 141.4 488.8
07/05 18:30 15.5 89 11.76 13.7 15 20 1031.7 0 26.2 31.4 53.0 139.5 141.4 488.8
07/05 18:20 15.5 88 11.63 13.5 17 20 1031.6 0 25.9 31.2 52.5 138.0 139.5 482.2
07/05 18:10 15.4 88 11.56 13.4 11 15 1031.6 0 25.8 31.1 52.2 137.4 138.7 479.3
07/05 18:00 15.4 87 11.43 13.2 11 17 1031.5 0 25.5 30.9 51.6 135.8 136.8 472.7
07/05 17:50 15.7 86 11.51 13.4 11 13 1031.5 0 25.7 30.9 51.8 136.2 137.4 474.8
07/05 17:40 15.7 84 11.24 13 13 17 1031.5 0 25.1 30.4 50.6 133.1 133.5 461.3
07/05 17:30 15.9 83 11.24 13 13 24 1031.4 0 25.1 30.4 50.5 132.7 133.2 460.1
07/05 17:20 16 82 11.17 12.9 11 13 1031.3 0 24.9 30.2 50.1 131.7 132.0 456.0
07/05 17:10 16.3 81 11.24 13 17 20 1031.2 0 25.1 30.2 50.2 132.0 132.4 457.7
07/05 17:00 16.6 80 11.3 13.1 15 22 1031.3 0 25.2 30.2 50.3 132.2 132.8 458.9
07/05 16:50 16.8 80 11.44 13.3 19 24 1031.2 0 25.5 30.4 50.8 133.5 134.4 464.6

Last Refresh: 08-May-2026 11:03:23

Bureau of Meteorology